Terminal Aerodrome Forecast
Issued by NWS Binghamton, NY

Home | Current Version | Previous Version | Text Only | Print | Product List | Glossary On
Versions: 1 2 3 4 5 6 7 8 9 10 11 12 13 14 15 16 17 18 19
000
FTUS41 KBGM 212300 RRA
TAFAVP
TAF
KAVP 212341Z 2200/2224 05004KT P6SM -SHRA SCT025 OVC040
     FM220300 03004KT P6SM -SHRA OVC025
     FM220600 02004KT 4SM BR OVC015
     FM221500 35007KT P6SM OVC022=

USA.gov is the U.S. government's official web portal to all federal, state and local government web resources and services.